sensor_id;sensor_type;location;lat;lon;timestamp;temperature;humidity
17968;DHT22;9109;48.050;11.696;2022-08-04T03:48:31;19.70;90.20
17968;DHT22;9109;48.050;11.696;2022-08-04T03:51:42;19.60;90.30
17968;DHT22;9109;48.050;11.696;2022-08-04T03:55:31;19.60;90.30
17968;DHT22;9109;48.050;11.696;2022-08-04T03:59:07;19.50;90.90
17968;DHT22;9109;48.050;11.696;2022-08-04T04:02:28;19.50;91.00
17968;DHT22;9109;48.050;11.696;2022-08-04T04:05:57;19.50;91.00
17968;DHT22;9109;48.050;11.696;2022-08-04T04:09:31;19.50;90.90
17968;DHT22;9109;48.050;11.696;2022-08-04T04:16:51;19.60;90.70
17968;DHT22;9109;48.050;11.696;2022-08-04T04:20:24;19.60;90.70
17968;DHT22;9109;48.050;11.696;2022-08-04T04:23:43;19.70;90.50
17968;DHT22;9109;48.050;11.696;2022-08-04T04:27:03;19.70;90.10
17968;DHT22;9109;48.050;11.696;2022-08-04T04:30:12;19.70;89.80
17968;DHT22;9109;48.050;11.696;2022-08-04T04:33:52;19.60;90.10
17968;DHT22;9109;48.050;11.696;2022-08-04T04:37:28;19.60;90.40
17968;DHT22;9109;48.050;11.696;2022-08-04T04:41:04;19.60;90.50
17968;DHT22;9109;48.050;11.696;2022-08-04T04:48:37;19.60;91.10
17968;DHT22;9109;48.050;11.696;2022-08-04T04:52:10;19.50;91.90
17968;DHT22;9109;48.050;11.696;2022-08-04T04:55:23;19.50;92.30
17968;DHT22;9109;48.050;11.696;2022-08-04T04:58:48;19.50;92.80
17968;DHT22;9109;48.050;11.696;2022-08-04T05:02:27;19.50;92.80
17968;DHT22;9109;48.050;11.696;2022-08-04T05:06:13;19.50;93.30
17968;DHT22;9109;48.050;11.696;2022-08-04T05:09:54;19.60;93.60
17968;DHT22;9109;48.050;11.696;2022-08-04T05:13:16;19.70;93.40
17968;DHT22;9109;48.050;11.696;2022-08-04T05:16:50;19.70;93.20
17968;DHT22;9109;48.050;11.696;2022-08-04T05:20:39;19.80;93.20
17968;DHT22;9109;48.050;11.696;2022-08-04T05:24:34;19.90;93.10
17968;DHT22;9109;48.050;11.696;2022-08-04T06:18:53;21.60;94.90
17968;DHT22;9109;48.050;11.696;2022-08-04T06:21:58;21.80;94.30
17968;DHT22;9109;48.050;11.696;2022-08-04T06:25:02;21.90;93.80
17968;DHT22;9109;48.050;11.696;2022-08-04T06:28:07;22.10;94.80
17968;DHT22;9109;48.050;11.696;2022-08-04T06:31:10;22.30;94.30
17968;DHT22;9109;48.050;11.696;2022-08-04T06:34:14;22.40;93.70
17968;DHT22;9109;48.050;11.696;2022-08-04T06:37:17;22.50;93.10
17968;DHT22;9109;48.050;11.696;2022-08-04T06:40:21;22.50;92.90
17968;DHT22;9109;48.050;11.696;2022-08-04T06:43:25;22.60;93.00
17968;DHT22;9109;48.050;11.696;2022-08-04T06:46:29;22.80;92.40
17968;DHT22;9109;48.050;11.696;2022-08-04T06:49:33;22.90;92.50
17968;DHT22;9109;48.050;11.696;2022-08-04T06:52:37;23.10;91.70
17968;DHT22;9109;48.050;11.696;2022-08-04T06:55:40;23.20;92.10
17968;DHT22;9109;48.050;11.696;2022-08-04T06:58:44;23.30;92.00
17968;DHT22;9109;48.050;11.696;2022-08-04T07:01:47;23.50;91.10
17968;DHT22;9109;48.050;11.696;2022-08-04T07:04:50;23.60;90.30
17968;DHT22;9109;48.050;11.696;2022-08-04T07:07:53;23.80;89.50
17968;DHT22;9109;48.050;11.696;2022-08-04T07:10:56;24.00;89.50
17968;DHT22;9109;48.050;11.696;2022-08-04T07:13:59;24.30;89.00
17968;DHT22;9109;48.050;11.696;2022-08-04T07:17:02;24.40;87.00
17968;DHT22;9109;48.050;11.696;2022-08-04T07:20:07;24.40;86.40
17968;DHT22;9109;48.050;11.696;2022-08-04T07:23:10;24.60;86.30
17968;DHT22;9109;48.050;11.696;2022-08-04T07:26:13;24.80;84.30
17968;DHT22;9109;48.050;11.696;2022-08-04T07:29:17;25.00;84.70
17968;DHT22;9109;48.050;11.696;2022-08-04T07:32:20;25.20;83.90
17968;DHT22;9109;48.050;11.696;2022-08-04T07:35:25;25.30;84.20
17968;DHT22;9109;48.050;11.696;2022-08-04T07:38:28;25.40;82.60
17968;DHT22;9109;48.050;11.696;2022-08-04T07:41:30;25.40;82.20
17968;DHT22;9109;48.050;11.696;2022-08-04T07:44:33;25.40;81.30
17968;DHT22;9109;48.050;11.696;2022-08-04T07:47:35;25.40;81.00
17968;DHT22;9109;48.050;11.696;2022-08-04T07:50:41;25.50;81.50
17968;DHT22;9109;48.050;11.696;2022-08-04T07:53:45;25.80;80.20
17968;DHT22;9109;48.050;11.696;2022-08-04T07:56:48;25.90;80.30
17968;DHT22;9109;48.050;11.696;2022-08-04T07:59:51;26.00;79.00
17968;DHT22;9109;48.050;11.696;2022-08-04T08:02:54;26.20;78.20
17968;DHT22;9109;48.050;11.696;2022-08-04T08:05:59;26.30;77.80
17968;DHT22;9109;48.050;11.696;2022-08-04T08:09:06;26.40;78.10
17968;DHT22;9109;48.050;11.696;2022-08-04T08:12:09;26.60;76.30
17968;DHT22;9109;48.050;11.696;2022-08-04T08:15:11;26.70;76.70
17968;DHT22;9109;48.050;11.696;2022-08-04T08:18:13;26.80;78.20
17968;DHT22;9109;48.050;11.696;2022-08-04T08:21:22;26.80;77.40
17968;DHT22;9109;48.050;11.696;2022-08-04T08:24:24;26.80;74.00
17968;DHT22;9109;48.050;11.696;2022-08-04T08:27:26;26.80;74.00
17968;DHT22;9109;48.050;11.696;2022-08-04T08:30:28;26.80;75.30
17968;DHT22;9109;48.050;11.696;2022-08-04T08:33:30;26.90;76.50
17968;DHT22;9109;48.050;11.696;2022-08-04T08:36:35;27.00;73.50
17968;DHT22;9109;48.050;11.696;2022-08-04T08:39:41;27.10;73.90
17968;DHT22;9109;48.050;11.696;2022-08-04T08:42:58;27.30;72.10
17968;DHT22;9109;48.050;11.696;2022-08-04T08:46:25;27.40;74.70
17968;DHT22;9109;48.050;11.696;2022-08-04T08:50:00;27.40;73.00
17968;DHT22;9109;48.050;11.696;2022-08-04T08:53:35;27.50;71.00
17968;DHT22;9109;48.050;11.696;2022-08-04T08:56:52;27.50;71.80
17968;DHT22;9109;48.050;11.696;2022-08-04T09:00:05;27.80;69.60
17968;DHT22;9109;48.050;11.696;2022-08-04T09:03:45;28.10;69.70
17968;DHT22;9109;48.050;11.696;2022-08-04T09:07:05;28.30;64.60
17968;DHT22;9109;48.050;11.696;2022-08-04T09:10:18;28.20;64.20
17968;DHT22;9109;48.050;11.696;2022-08-04T09:13:23;28.00;65.00
17968;DHT22;9109;48.050;11.696;2022-08-04T09:16:35;28.10;64.20
17968;DHT22;9109;48.050;11.696;2022-08-04T09:19:43;28.30;64.20
17968;DHT22;9109;48.050;11.696;2022-08-04T09:22:50;28.40;64.40
17968;DHT22;9109;48.050;11.696;2022-08-04T09:25:59;28.70;63.20
17968;DHT22;9109;48.050;11.696;2022-08-04T09:29:10;28.80;63.30
17968;DHT22;9109;48.050;11.696;2022-08-04T09:32:22;28.70;62.70
17968;DHT22;9109;48.050;11.696;2022-08-04T09:35:36;28.80;61.50
17968;DHT22;9109;48.050;11.696;2022-08-04T09:38:45;28.90;64.40
17968;DHT22;9109;48.050;11.696;2022-08-04T09:42:00;28.90;63.40
17968;DHT22;9109;48.050;11.696;2022-08-04T09:45:11;29.00;62.50
17968;DHT22;9109;48.050;11.696;2022-08-04T09:48:24;29.00;65.00
17968;DHT22;9109;48.050;11.696;2022-08-04T09:51:48;29.20;63.70
17968;DHT22;9109;48.050;11.696;2022-08-04T09:55:01;29.20;64.80
17968;DHT22;9109;48.050;11.696;2022-08-04T09:58:13;29.30;61.70
17968;DHT22;9109;48.050;11.696;2022-08-04T10:01:24;29.40;59.60
17968;DHT22;9109;48.050;11.696;2022-08-04T10:04:29;29.50;59.30
17968;DHT22;9109;48.050;11.696;2022-08-04T10:07:47;29.50;61.70
17968;DHT22;9109;48.050;11.696;2022-08-04T10:10:59;29.50;56.20
17968;DHT22;9109;48.050;11.696;2022-08-04T10:14:12;29.60;59.30
17968;DHT22;9109;48.050;11.696;2022-08-04T10:17:25;29.70;56.50
17968;DHT22;9109;48.050;11.696;2022-08-04T10:20:44;29.80;57.10
17968;DHT22;9109;48.050;11.696;2022-08-04T10:24:09;30.00;58.30
17968;DHT22;9109;48.050;11.696;2022-08-04T10:27:20;30.10;55.60
17968;DHT22;9109;48.050;11.696;2022-08-04T10:30:25;30.20;59.30
17968;DHT22;9109;48.050;11.696;2022-08-04T10:33:33;30.30;59.00
17968;DHT22;9109;48.050;11.696;2022-08-04T10:36:43;30.40;57.20
17968;DHT22;9109;48.050;11.696;2022-08-04T10:39:53;30.40;54.20
17968;DHT22;9109;48.050;11.696;2022-08-04T10:43:36;30.50;55.40
17968;DHT22;9109;48.050;11.696;2022-08-04T10:46:46;30.50;58.60
17968;DHT22;9109;48.050;11.696;2022-08-04T10:49:54;30.70;55.50
17968;DHT22;9109;48.050;11.696;2022-08-04T10:53:02;30.70;55.40
17968;DHT22;9109;48.050;11.696;2022-08-04T10:56:09;30.90;54.20
17968;DHT22;9109;48.050;11.696;2022-08-04T10:59:17;30.90;56.80
17968;DHT22;9109;48.050;11.696;2022-08-04T11:02:33;31.00;57.50
17968;DHT22;9109;48.050;11.696;2022-08-04T11:05:40;31.10;59.70
17968;DHT22;9109;48.050;11.696;2022-08-04T11:08:47;31.30;57.30
17968;DHT22;9109;48.050;11.696;2022-08-04T11:11:53;31.40;57.50
17968;DHT22;9109;48.050;11.696;2022-08-04T11:15:00;31.40;55.50
17968;DHT22;9109;48.050;11.696;2022-08-04T11:18:09;31.50;56.10
17968;DHT22;9109;48.050;11.696;2022-08-04T11:21:18;31.60;55.20
17968;DHT22;9109;48.050;11.696;2022-08-04T11:24:25;31.60;55.00
17968;DHT22;9109;48.050;11.696;2022-08-04T11:27:34;31.80;52.50
17968;DHT22;9109;48.050;11.696;2022-08-04T11:30:44;31.90;53.10
17968;DHT22;9109;48.050;11.696;2022-08-04T11:33:54;31.90;50.80
17968;DHT22;9109;48.050;11.696;2022-08-04T11:37:11;31.90;52.00
17968;DHT22;9109;48.050;11.696;2022-08-04T11:40:21;32.00;51.30
17968;DHT22;9109;48.050;11.696;2022-08-04T11:43:28;32.10;50.50
17968;DHT22;9109;48.050;11.696;2022-08-04T11:46:41;31.90;49.80
17968;DHT22;9109;48.050;11.696;2022-08-04T11:49:48;31.80;51.30
17968;DHT22;9109;48.050;11.696;2022-08-04T11:52:53;32.10;53.80
17968;DHT22;9109;48.050;11.696;2022-08-04T11:56:00;32.30;53.20
17968;DHT22;9109;48.050;11.696;2022-08-04T11:59:04;32.40;51.10
17968;DHT22;9109;48.050;11.696;2022-08-04T12:02:46;32.40;49.90
17968;DHT22;9109;48.050;11.696;2022-08-04T12:06:02;32.60;51.10
17968;DHT22;9109;48.050;11.696;2022-08-04T12:09:11;32.60;50.10
17968;DHT22;9109;48.050;11.696;2022-08-04T12:12:24;32.70;50.10
17968;DHT22;9109;48.050;11.696;2022-08-04T12:15:30;32.70;49.00
17968;DHT22;9109;48.050;11.696;2022-08-04T12:18:37;32.70;48.90
17968;DHT22;9109;48.050;11.696;2022-08-04T12:21:43;32.70;49.10
17968;DHT22;9109;48.050;11.696;2022-08-04T12:24:51;32.90;49.10
17968;DHT22;9109;48.050;11.696;2022-08-04T12:27:58;32.90;48.20
17968;DHT22;9109;48.050;11.696;2022-08-04T12:31:06;33.10;49.10
17968;DHT22;9109;48.050;11.696;2022-08-04T12:34:15;33.30;49.10
17968;DHT22;9109;48.050;11.696;2022-08-04T12:37:28;33.10;45.60
17968;DHT22;9109;48.050;11.696;2022-08-04T12:40:39;32.90;45.80
17968;DHT22;9109;48.050;11.696;2022-08-04T12:43:43;32.70;46.40
17968;DHT22;9109;48.050;11.696;2022-08-04T12:46:47;32.80;46.20
17968;DHT22;9109;48.050;11.696;2022-08-04T12:49:50;32.90;46.90
17968;DHT22;9109;48.050;11.696;2022-08-04T12:52:56;33.20;47.20
17968;DHT22;9109;48.050;11.696;2022-08-04T12:55:59;33.30;46.10
17968;DHT22;9109;48.050;11.696;2022-08-04T12:59:04;33.40;45.90
17968;DHT22;9109;48.050;11.696;2022-08-04T13:02:11;33.40;46.10
17968;DHT22;9109;48.050;11.696;2022-08-04T13:05:15;33.40;44.90
17968;DHT22;9109;48.050;11.696;2022-08-04T13:08:19;33.60;44.20
17968;DHT22;9109;48.050;11.696;2022-08-04T13:11:22;33.60;43.80
17968;DHT22;9109;48.050;11.696;2022-08-04T13:14:28;33.50;45.50
17968;DHT22;9109;48.050;11.696;2022-08-04T13:17:41;33.60;45.30
17968;DHT22;9109;48.050;11.696;2022-08-04T13:20:46;33.80;45.60
17968;DHT22;9109;48.050;11.696;2022-08-04T13:23:52;33.90;45.10
17968;DHT22;9109;48.050;11.696;2022-08-04T13:26:57;33.90;45.30
17968;DHT22;9109;48.050;11.696;2022-08-04T13:30:00;33.90;44.60
17968;DHT22;9109;48.050;11.696;2022-08-04T13:33:03;33.90;43.60
17968;DHT22;9109;48.050;11.696;2022-08-04T13:36:07;33.80;45.00
17968;DHT22;9109;48.050;11.696;2022-08-04T13:39:16;34.00;44.50
17968;DHT22;9109;48.050;11.696;2022-08-04T13:42:19;34.00;45.30
17968;DHT22;9109;48.050;11.696;2022-08-04T13:45:23;34.10;46.10
17968;DHT22;9109;48.050;11.696;2022-08-04T13:48:30;34.00;44.40
17968;DHT22;9109;48.050;11.696;2022-08-04T13:51:34;34.00;44.30
17968;DHT22;9109;48.050;11.696;2022-08-04T13:54:40;34.00;44.50
17968;DHT22;9109;48.050;11.696;2022-08-04T13:57:44;34.00;45.20
17968;DHT22;9109;48.050;11.696;2022-08-04T14:00:48;33.90;44.80
17968;DHT22;9109;48.050;11.696;2022-08-04T14:03:58;33.80;44.40
17968;DHT22;9109;48.050;11.696;2022-08-04T14:07:05;33.90;45.40
17968;DHT22;9109;48.050;11.696;2022-08-04T14:10:12;33.70;44.80
17968;DHT22;9109;48.050;11.696;2022-08-04T14:13:14;33.30;44.40
17968;DHT22;9109;48.050;11.696;2022-08-04T14:16:18;33.20;44.50
17968;DHT22;9109;48.050;11.696;2022-08-04T14:19:21;33.20;44.60
17968;DHT22;9109;48.050;11.696;2022-08-04T14:22:34;33.30;44.90
17968;DHT22;9109;48.050;11.696;2022-08-04T14:25:38;33.50;46.40
17968;DHT22;9109;48.050;11.696;2022-08-04T14:28:40;33.80;46.20
17968;DHT22;9109;48.050;11.696;2022-08-04T14:31:44;33.90;46.40
17968;DHT22;9109;48.050;11.696;2022-08-04T14:34:50;34.00;45.40
17968;DHT22;9109;48.050;11.696;2022-08-04T14:37:53;34.00;44.60
17968;DHT22;9109;48.050;11.696;2022-08-04T14:40:59;34.00;45.90
17968;DHT22;9109;48.050;11.696;2022-08-04T14:44:02;34.00;44.10
17968;DHT22;9109;48.050;11.696;2022-08-04T14:47:05;33.90;44.90
17968;DHT22;9109;48.050;11.696;2022-08-04T14:50:09;33.90;46.00
17968;DHT22;9109;48.050;11.696;2022-08-04T14:53:13;34.10;44.50
17968;DHT22;9109;48.050;11.696;2022-08-04T14:56:16;34.00;44.90
17968;DHT22;9109;48.050;11.696;2022-08-04T14:59:19;34.00;44.50
17968;DHT22;9109;48.050;11.696;2022-08-04T15:02:21;34.10;45.90
17968;DHT22;9109;48.050;11.696;2022-08-04T15:05:24;34.30;46.30
17968;DHT22;9109;48.050;11.696;2022-08-04T15:08:26;34.30;46.10
17968;DHT22;9109;48.050;11.696;2022-08-04T15:11:30;34.30;45.30
17968;DHT22;9109;48.050;11.696;2022-08-04T15:14:32;34.40;45.00
17968;DHT22;9109;48.050;11.696;2022-08-04T15:17:35;34.50;44.90
17968;DHT22;9109;48.050;11.696;2022-08-04T15:20:38;34.50;45.40
17968;DHT22;9109;48.050;11.696;2022-08-04T15:23:41;34.50;45.30
17968;DHT22;9109;48.050;11.696;2022-08-04T15:26:48;34.50;44.00
17968;DHT22;9109;48.050;11.696;2022-08-04T15:29:51;34.50;44.90
17968;DHT22;9109;48.050;11.696;2022-08-04T15:32:59;34.40;44.90
17968;DHT22;9109;48.050;11.696;2022-08-04T15:36:12;34.20;44.20
17968;DHT22;9109;48.050;11.696;2022-08-04T15:39:23;34.10;44.10
17968;DHT22;9109;48.050;11.696;2022-08-04T15:42:34;34.00;44.80
17968;DHT22;9109;48.050;11.696;2022-08-04T15:45:50;34.00;44.90
17968;DHT22;9109;48.050;11.696;2022-08-04T15:48:52;34.10;44.30
17968;DHT22;9109;48.050;11.696;2022-08-04T15:51:59;33.90;44.40
17968;DHT22;9109;48.050;11.696;2022-08-04T15:55:31;34.00;45.70
17968;DHT22;9109;48.050;11.696;2022-08-04T15:58:47;34.00;44.90
17968;DHT22;9109;48.050;11.696;2022-08-04T16:02:27;34.00;45.20
17968;DHT22;9109;48.050;11.696;2022-08-04T16:05:34;34.10;46.80
17968;DHT22;9109;48.050;11.696;2022-08-04T16:08:57;34.00;45.30
17968;DHT22;9109;48.050;11.696;2022-08-04T16:11:59;34.00;45.30
17968;DHT22;9109;48.050;11.696;2022-08-04T16:18:41;33.80;45.30
17968;DHT22;9109;48.050;11.696;2022-08-04T16:21:47;33.70;45.30
17968;DHT22;9109;48.050;11.696;2022-08-04T16:24:51;33.70;43.70
17968;DHT22;9109;48.050;11.696;2022-08-04T16:27:54;33.50;45.20
17968;DHT22;9109;48.050;11.696;2022-08-04T16:30:59;33.50;45.60
17968;DHT22;9109;48.050;11.696;2022-08-04T16:34:02;33.50;46.30
17968;DHT22;9109;48.050;11.696;2022-08-04T16:37:06;33.50;46.20
17968;DHT22;9109;48.050;11.696;2022-08-04T16:40:32;33.50;45.30
17968;DHT22;9109;48.050;11.696;2022-08-04T16:43:35;33.50;45.20
17968;DHT22;9109;48.050;11.696;2022-08-04T16:46:40;33.40;45.90
17968;DHT22;9109;48.050;11.696;2022-08-04T16:49:46;33.30;45.40
17968;DHT22;9109;48.050;11.696;2022-08-04T16:53:09;33.20;47.40
17968;DHT22;9109;48.050;11.696;2022-08-04T16:56:13;33.30;46.10
17968;DHT22;9109;48.050;11.696;2022-08-04T16:59:18;33.20;46.00
17968;DHT22;9109;48.050;11.696;2022-08-04T17:02:23;33.20;47.00
17968;DHT22;9109;48.050;11.696;2022-08-04T17:05:26;33.10;45.60
17968;DHT22;9109;48.050;11.696;2022-08-04T17:08:28;33.00;46.20
17968;DHT22;9109;48.050;11.696;2022-08-04T17:11:32;32.90;46.00
17968;DHT22;9109;48.050;11.696;2022-08-04T17:14:34;32.80;46.90
17968;DHT22;9109;48.050;11.696;2022-08-04T17:17:36;32.70;45.80
17968;DHT22;9109;48.050;11.696;2022-08-04T17:20:40;32.60;47.80
17968;DHT22;9109;48.050;11.696;2022-08-04T17:23:45;32.60;45.90
17968;DHT22;9109;48.050;11.696;2022-08-04T17:26:48;32.50;46.30
17968;DHT22;9109;48.050;11.696;2022-08-04T17:29:50;32.40;46.70
17968;DHT22;9109;48.050;11.696;2022-08-04T17:32:52;32.30;45.90
17968;DHT22;9109;48.050;11.696;2022-08-04T17:35:58;32.30;46.60
17968;DHT22;9109;48.050;11.696;2022-08-04T17:39:10;32.20;46.70
17968;DHT22;9109;48.050;11.696;2022-08-04T17:42:12;32.20;47.60
17968;DHT22;9109;48.050;11.696;2022-08-04T17:45:16;32.10;47.00
17968;DHT22;9109;48.050;11.696;2022-08-04T17:48:19;32.00;48.40
17968;DHT22;9109;48.050;11.696;2022-08-04T17:51:40;31.90;49.40
17968;DHT22;9109;48.050;11.696;2022-08-04T17:54:43;31.80;49.60
17968;DHT22;9109;48.050;11.696;2022-08-04T17:57:46;31.80;50.00
17968;DHT22;9109;48.050;11.696;2022-08-04T18:00:57;31.70;50.60
17968;DHT22;9109;48.050;11.696;2022-08-04T18:04:00;31.70;51.00
17968;DHT22;9109;48.050;11.696;2022-08-04T18:07:33;31.50;51.10
17968;DHT22;9109;48.050;11.696;2022-08-04T18:10:38;31.40;51.50
17968;DHT22;9109;48.050;11.696;2022-08-04T18:13:40;31.30;51.60
17968;DHT22;9109;48.050;11.696;2022-08-04T18:16:43;31.20;51.90
17968;DHT22;9109;48.050;11.696;2022-08-04T18:19:54;31.10;52.00
17968;DHT22;9109;48.050;11.696;2022-08-04T18:22:57;31.10;52.20
17968;DHT22;9109;48.050;11.696;2022-08-04T18:26:00;31.10;52.50
17968;DHT22;9109;48.050;11.696;2022-08-04T18:29:02;31.00;52.50
17968;DHT22;9109;48.050;11.696;2022-08-04T18:32:04;31.00;53.50
17968;DHT22;9109;48.050;11.696;2022-08-04T18:35:06;31.00;53.50
17968;DHT22;9109;48.050;11.696;2022-08-04T18:38:10;31.00;54.00
17968;DHT22;9109;48.050;11.696;2022-08-04T18:41:12;31.00;53.90
17968;DHT22;9109;48.050;11.696;2022-08-04T18:44:14;30.80;54.30
17968;DHT22;9109;48.050;11.696;2022-08-04T18:47:16;30.70;54.60
17968;DHT22;9109;48.050;11.696;2022-08-04T18:50:18;30.60;54.60
17968;DHT22;9109;48.050;11.696;2022-08-04T18:53:21;30.40;55.00
17968;DHT22;9109;48.050;11.696;2022-08-04T18:56:23;30.40;55.40
17968;DHT22;9109;48.050;11.696;2022-08-04T18:59:25;30.30;55.90
17968;DHT22;9109;48.050;11.696;2022-08-04T19:02:27;30.20;56.10
17968;DHT22;9109;48.050;11.696;2022-08-04T19:05:29;30.20;56.40
17968;DHT22;9109;48.050;11.696;2022-08-04T19:08:32;30.10;56.80
17968;DHT22;9109;48.050;11.696;2022-08-04T19:11:34;30.10;57.20
17968;DHT22;9109;48.050;11.696;2022-08-04T19:14:36;30.10;57.60
17968;DHT22;9109;48.050;11.696;2022-08-04T19:17:38;30.00;58.20
17968;DHT22;9109;48.050;11.696;2022-08-04T19:20:40;29.90;58.60
17968;DHT22;9109;48.050;11.696;2022-08-04T19:23:43;29.80;58.70
17968;DHT22;9109;48.050;11.696;2022-08-04T19:26:45;29.90;58.70
17968;DHT22;9109;48.050;11.696;2022-08-04T19:29:47;29.80;59.00
17968;DHT22;9109;48.050;11.696;2022-08-04T19:56:02;28.90;62.30
17968;DHT22;9109;48.050;11.696;2022-08-04T19:59:40;28.80;62.70
17968;DHT22;9109;48.050;11.696;2022-08-04T20:11:39;28.50;64.00
17968;DHT22;9109;48.050;11.696;2022-08-04T20:19:08;28.20;65.00
17968;DHT22;9109;48.050;11.696;2022-08-04T20:22:51;28.10;65.40
17968;DHT22;9109;48.050;11.696;2022-08-04T20:30:59;27.90;66.30
17968;DHT22;9109;48.050;11.696;2022-08-04T22:52:11;25.90;74.00
